createdAt,value
2023-04-02T00:00:32.150Z,100968.70
2023-04-02T00:04:29.579Z,100970.85
2023-04-02T00:07:51.773Z,100976.08
2023-04-02T00:11:40.001Z,100971.95
2023-04-02T00:15:01.874Z,100979.74
2023-04-02T00:18:46.743Z,100984.83
2023-04-02T00:22:20.417Z,100990.55
2023-04-02T00:25:54.366Z,100994.58
2023-04-02T00:29:32.037Z,100997.98
2023-04-02T00:33:19.951Z,101007.64
2023-04-02T00:36:48.558Z,101000.94
2023-04-02T00:40:31.128Z,101000.27
2023-04-02T00:44:03.900Z,101013.58
2023-04-02T00:47:41.147Z,101016.00
2023-04-02T00:51:39.196Z,101022.40
2023-04-02T00:55:21.678Z,101022.05
2023-04-02T00:58:36.926Z,101026.70
2023-04-02T01:06:12.789Z,101029.38
2023-04-02T01:10:05.381Z,101031.08
2023-04-02T01:13:24.370Z,101036.98
2023-04-02T01:17:26.706Z,101034.18
2023-04-02T01:20:46.508Z,101041.96
2023-04-02T01:24:09.566Z,101048.55
2023-04-02T01:27:50.372Z,101049.06
2023-04-02T01:31:22.382Z,101059.13
2023-04-02T01:34:58.538Z,101054.94
2023-04-02T01:38:49.934Z,101060.84
2023-04-02T01:42:36.110Z,101066.36
2023-04-02T01:45:51.712Z,101069.66
2023-04-02T01:49:28.973Z,101070.04
2023-04-02T01:53:11.917Z,101073.66
2023-04-02T02:00:23.531Z,101084.86
2023-04-02T02:04:00.269Z,101088.89
2023-04-02T02:07:37.516Z,101096.70
2023-04-02T02:11:21.633Z,101100.17
2023-04-02T02:14:53.065Z,101099.69
2023-04-02T02:18:31.394Z,101104.24
2023-04-02T02:22:08.375Z,101112.64
2023-04-02T02:25:47.740Z,101119.42
2023-04-02T02:29:27.468Z,101120.85
2023-04-02T02:33:03.725Z,101132.09
2023-04-02T02:36:49.322Z,101138.52
2023-04-02T02:40:21.956Z,101141.96
2023-04-02T02:43:59.400Z,101142.14
2023-04-02T02:47:36.037Z,101139.88
2023-04-02T02:51:20.956Z,101145.40
2023-04-02T02:55:04.735Z,101144.96
2023-04-02T02:58:32.871Z,101146.55
2023-04-02T03:02:10.628Z,101148.31
2023-04-02T03:05:50.240Z,101149.91
2023-04-02T03:09:59.465Z,101152.81
2023-04-02T03:13:11.545Z,101162.04
2023-04-02T03:16:42.811Z,101167.39
2023-04-02T03:20:41.150Z,101175.19
2023-04-02T03:24:00.046Z,101180.35
2023-04-02T03:27:42.483Z,101186.60
2023-04-02T03:31:14.705Z,101189.79
2023-04-02T03:34:58.365Z,101193.75
2023-04-02T03:38:52.187Z,101198.61
2023-04-02T03:42:10.845Z,101203.08
2023-04-02T03:45:44.646Z,101205.77
2023-04-02T03:49:24.611Z,101216.17
2023-04-02T03:52:55.360Z,101220.33
2023-04-02T04:00:32.706Z,101230.42
2023-04-02T04:03:57.767Z,101239.21
2023-04-02T04:07:37.111Z,101240.87
2023-04-02T04:11:10.472Z,101244.29
2023-04-02T04:14:46.293Z,101246.13
2023-04-02T04:18:38.091Z,101244.06
2023-04-02T04:22:34.159Z,101254.67
2023-04-02T04:26:09.761Z,101258.31
2023-04-02T04:30:10.683Z,101264.27
2023-04-02T04:33:25.391Z,101263.27
2023-04-02T04:36:55.569Z,101273.77
2023-04-02T04:40:37.757Z,101276.84
2023-04-02T04:44:06.938Z,101287.65
2023-04-02T04:47:55.197Z,101294.90
2023-04-02T04:51:34.002Z,101305.91
2023-04-02T04:54:59.356Z,101308.02
2023-04-02T05:02:18.617Z,101322.88
2023-04-02T05:05:52.939Z,101330.26
2023-04-02T05:10:04.019Z,101337.45
2023-04-02T05:13:31.184Z,101342.57
2023-04-02T05:16:56.575Z,101352.87
2023-04-02T05:24:34.058Z,101370.30
2023-04-02T05:27:55.893Z,101367.14
2023-04-02T05:31:38.237Z,101379.30
2023-04-02T05:34:57.268Z,101382.86
2023-04-02T05:38:35.678Z,101389.45
2023-04-02T05:42:22.712Z,101389.64
2023-04-02T05:45:54.948Z,101397.98
2023-04-02T05:49:48.133Z,101399.15
2023-04-02T05:53:17.997Z,101398.55
2023-04-02T05:56:49.320Z,101408.43
2023-04-02T06:00:43.621Z,101408.37
2023-04-02T06:04:07.821Z,101420.04
2023-04-02T06:07:57.351Z,101432.77
2023-04-02T06:11:24.192Z,101437.23
2023-04-02T06:14:49.911Z,101445.73
2023-04-02T06:18:58.357Z,101448.77
2023-04-02T06:22:32.232Z,101452.80
2023-04-02T06:26:05.421Z,101462.55
2023-04-02T06:29:32.089Z,101471.09
2023-04-02T06:32:58.374Z,101467.77
2023-04-02T06:36:36.436Z,101472.30
2023-04-02T06:40:45.051Z,101484.59
2023-04-02T06:44:23.251Z,101484.34
2023-04-02T06:47:50.790Z,101493.00
2023-04-02T06:51:26.448Z,101499.13
2023-04-02T06:55:26.664Z,101501.95
2023-04-02T06:58:40.221Z,101505.21
2023-04-02T07:02:39.544Z,101516.31
2023-04-02T07:05:56.169Z,101522.60
2023-04-02T07:09:33.176Z,101531.02
2023-04-02T07:13:22.157Z,101535.92
2023-04-02T07:16:48.469Z,101541.08
2023-04-02T07:20:31.834Z,101548.20
2023-04-02T07:24:03.492Z,101547.14
2023-04-02T07:27:41.493Z,101556.48
2023-04-02T07:31:27.985Z,101561.33
2023-04-02T07:34:56.681Z,101563.88
2023-04-02T07:38:34.151Z,101574.17
2023-04-02T07:42:11.876Z,101583.92
2023-04-02T07:49:27.497Z,101594.22
2023-04-02T07:53:05.115Z,101601.20
2023-04-02T07:56:42.771Z,101611.17
2023-04-02T08:00:21.081Z,101611.18
2023-04-02T08:03:58.518Z,101618.84
2023-04-02T08:07:36.289Z,101627.62
2023-04-02T08:11:14.047Z,101632.20
2023-04-02T08:14:51.096Z,101639.90
2023-04-02T08:18:30.334Z,101649.47
2023-04-02T08:22:06.212Z,101650.80
2023-04-02T08:25:48.257Z,101653.95
2023-04-02T08:29:22.241Z,101665.83
2023-04-02T08:32:59.357Z,101668.27
2023-04-02T08:36:39.996Z,101674.76
2023-04-02T08:40:32.586Z,101684.87
2023-04-02T08:44:24.617Z,101684.06
2023-04-02T08:47:41.081Z,101686.69
2023-04-02T08:51:12.551Z,101698.65
2023-04-02T08:54:45.252Z,101695.66
2023-04-02T08:58:43.207Z,101702.89
2023-04-02T09:02:13.194Z,101703.95
2023-04-02T09:05:43.000Z,101711.29
2023-04-02T09:09:17.116Z,101722.35
2023-04-02T09:12:53.818Z,101721.59
2023-04-02T09:16:54.377Z,101729.86
2023-04-02T09:20:19.466Z,101732.02
2023-04-02T09:23:47.556Z,101738.11
2023-04-02T09:27:30.720Z,101741.15
2023-04-02T09:31:17.669Z,101747.43
2023-04-02T09:34:39.884Z,101750.44
2023-04-02T09:38:33.414Z,101761.27
2023-04-02T09:42:05.457Z,101767.33
2023-04-02T09:45:33.551Z,101773.65
2023-04-02T09:49:14.818Z,101787.59
2023-04-02T09:52:49.317Z,101798.41
2023-04-02T09:56:26.857Z,101799.83
2023-04-02T10:00:29.949Z,101806.37
2023-04-02T10:03:43.533Z,101815.83
2023-04-02T10:07:38.094Z,101818.16
2023-04-02T10:11:00.813Z,101829.42
2023-04-02T10:14:40.589Z,101840.58
2023-04-02T10:18:49.769Z,101844.77
2023-04-02T10:21:52.740Z,101852.16
2023-04-02T10:25:32.643Z,101856.83
2023-04-02T10:29:16.018Z,101862.75
2023-04-02T10:33:00.682Z,101866.11
2023-04-02T10:36:37.034Z,101866.87
2023-04-02T10:40:12.998Z,101872.81
2023-04-02T10:44:19.973Z,101876.10
2023-04-02T10:47:33.150Z,101884.52
2023-04-02T10:51:25.218Z,101890.17
2023-04-02T10:54:50.989Z,101893.41
2023-04-02T10:58:29.018Z,101899.72
2023-04-02T11:01:55.517Z,101907.25
2023-04-02T11:05:52.538Z,101910.53
2023-04-02T11:09:19.172Z,101912.33
2023-04-02T11:12:52.981Z,101918.77
2023-04-02T11:16:23.845Z,101924.19
2023-04-02T11:20:40.760Z,101930.19
2023-04-02T11:24:01.452Z,101933.19
2023-04-02T11:27:26.059Z,101939.31
2023-04-02T11:30:58.096Z,101944.80
2023-04-02T11:35:05.905Z,101952.17
2023-04-02T11:38:24.773Z,101956.08
2023-04-02T11:42:26.612Z,101966.29
2023-04-02T11:45:52.656Z,101962.89
2023-04-02T11:49:40.077Z,101975.77
2023-04-02T11:53:02.092Z,101978.58
2023-04-02T11:56:37.235Z,101982.31
2023-04-02T12:00:25.765Z,101984.50
2023-04-02T12:04:21.333Z,101989.98
2023-04-02T12:07:52.518Z,101996.33
2023-04-02T12:11:06.395Z,102000.67
2023-04-02T12:14:49.062Z,102001.55
2023-04-02T12:18:24.443Z,102009.70
2023-04-02T12:21:59.827Z,102016.56
2023-04-02T12:25:41.089Z,102017.73
2023-04-02T12:29:23.968Z,102035.04
2023-04-02T12:32:51.264Z,102043.04
2023-04-02T12:36:29.363Z,102049.03
2023-04-02T12:40:18.802Z,102042.21
2023-04-02T12:43:43.730Z,102048.63
2023-04-02T12:47:21.609Z,102056.20
2023-04-02T12:51:01.430Z,102062.14
2023-04-02T12:54:50.195Z,102068.31
2023-04-02T12:58:36.942Z,102072.39
2023-04-02T13:02:01.093Z,102071.09
2023-04-02T13:05:43.838Z,102071.17
2023-04-02T13:09:30.092Z,102073.39
2023-04-02T13:12:46.327Z,102079.52
2023-04-02T13:16:33.274Z,102080.70
2023-04-02T13:20:31.850Z,102081.43
2023-04-02T13:23:39.031Z,102094.89
2023-04-02T13:27:17.587Z,102093.34
2023-04-02T13:30:53.499Z,102092.46
2023-04-02T13:38:33.114Z,102106.34
2023-04-02T13:42:12.617Z,102100.36
2023-04-02T13:45:54.484Z,102104.58
2023-04-02T13:49:27.980Z,102110.58
2023-04-02T13:53:10.524Z,102103.41
2023-04-02T13:57:43.603Z,102112.98
2023-04-02T14:00:57.406Z,102117.63
2023-04-02T14:04:41.120Z,102123.86
2023-04-02T14:08:56.200Z,102122.23
2023-04-02T14:12:16.514Z,102126.73
2023-04-02T14:16:19.875Z,102136.71
2023-04-02T14:19:47.582Z,102141.73
2023-04-02T14:23:17.335Z,102146.46
2023-04-02T14:27:00.355Z,102148.73
2023-04-02T14:30:29.589Z,102161.31
2023-04-02T14:34:17.859Z,102160.54
2023-04-02T14:37:35.631Z,102167.90
2023-04-02T14:41:35.270Z,102171.31
2023-04-02T14:45:02.345Z,102175.60
2023-04-02T14:48:27.834Z,102178.04
2023-04-02T14:52:10.981Z,102185.52
2023-04-02T14:55:43.691Z,102192.86
2023-04-02T14:59:29.378Z,102194.17
2023-04-02T15:03:18.354Z,102196.50
2023-04-02T15:06:37.067Z,102195.70
2023-04-02T15:10:31.942Z,102198.64
2023-04-02T15:14:26.661Z,102203.05
2023-04-02T15:17:28.067Z,102205.13
2023-04-02T15:21:08.868Z,102217.97
2023-04-02T15:24:58.754Z,102224.36
2023-04-02T15:28:26.840Z,102230.91
2023-04-02T15:32:15.155Z,102234.80
2023-04-02T15:35:53.330Z,102232.14
2023-04-02T15:39:42.364Z,102238.50
2023-04-02T15:43:35.324Z,102241.50
2023-04-02T15:47:22.386Z,102247.17
2023-04-02T15:51:04.985Z,102248.83
2023-04-02T15:54:20.079Z,102248.67
2023-04-02T15:57:58.753Z,102260.44
2023-04-02T16:01:36.922Z,102264.48
2023-04-02T16:05:09.730Z,102268.94
2023-04-02T16:09:04.740Z,102269.73
2023-04-02T16:12:20.431Z,102268.95
2023-04-02T16:16:23.004Z,102275.09
2023-04-02T16:19:42.362Z,102279.53
2023-04-02T16:23:14.188Z,102287.42
2023-04-02T16:26:58.166Z,102286.19
2023-04-02T16:31:02.890Z,102297.12
2023-04-02T16:34:15.612Z,102294.61
2023-04-02T16:38:07.987Z,102296.17
2023-04-02T16:41:41.024Z,102302.66
2023-04-02T16:45:19.377Z,102308.33
2023-04-02T16:48:46.273Z,102311.52
2023-04-02T16:53:02.670Z,102316.52
2023-04-02T16:56:28.889Z,102323.77
2023-04-02T17:00:03.893Z,102317.20
2023-04-02T17:03:43.758Z,102326.11
2023-04-02T17:07:28.719Z,102336.70
2023-04-02T17:10:49.327Z,102339.03
2023-04-02T17:14:22.281Z,102343.31
2023-04-02T17:17:50.586Z,102347.43
2023-04-02T17:21:30.085Z,102341.00
2023-04-02T17:25:07.730Z,102353.58
2023-04-02T17:28:44.081Z,102357.76
2023-04-02T17:32:30.840Z,102356.80
2023-04-02T17:36:11.313Z,102361.56
2023-04-02T17:40:13.555Z,102366.76
2023-04-02T17:43:39.780Z,102371.05
2023-04-02T17:47:09.218Z,102377.57
2023-04-02T17:50:53.653Z,102398.20
2023-04-02T17:54:37.231Z,102401.26
2023-04-02T17:57:50.719Z,102404.80
2023-04-02T18:01:32.275Z,102410.91
2023-04-02T18:05:12.885Z,102412.70
2023-04-02T18:08:52.868Z,102407.55
2023-04-02T18:12:45.412Z,102411.84
2023-04-02T18:16:04.538Z,102421.13
2023-04-02T18:19:44.076Z,102427.87
2023-04-02T18:23:46.109Z,102426.38
2023-04-02T18:27:19.505Z,102434.07
2023-04-02T18:30:44.128Z,102436.53
2023-04-02T18:34:44.043Z,102432.66
2023-04-02T18:38:09.732Z,102437.11
2023-04-02T18:41:47.133Z,102441.88
2023-04-02T18:45:13.311Z,102441.85
2023-04-02T18:49:04.315Z,102444.36
2023-04-02T18:52:19.364Z,102456.73
2023-04-02T18:56:04.489Z,102457.41
2023-04-02T18:59:49.150Z,102456.02
2023-04-02T19:03:31.910Z,102458.16
2023-04-02T19:06:57.667Z,102463.35
2023-04-02T19:10:32.014Z,102466.91
2023-04-02T19:14:07.824Z,102470.83
2023-04-02T19:17:47.406Z,102481.16
2023-04-02T19:21:41.292Z,102478.27
2023-04-02T19:25:24.764Z,102483.92
2023-04-02T19:28:53.166Z,102486.80
2023-04-02T19:32:32.758Z,102479.55
2023-04-02T19:36:27.848Z,102486.64
2023-04-02T19:39:48.797Z,102494.14
2023-04-02T19:43:07.433Z,102491.40
2023-04-02T19:46:48.504Z,102498.76
2023-04-02T19:50:22.252Z,102502.58
2023-04-02T19:54:00.598Z,102507.35
2023-04-02T19:57:40.642Z,102506.68
2023-04-02T20:01:16.042Z,102511.70
2023-04-02T20:04:53.450Z,102519.98
2023-04-02T20:08:31.638Z,102522.02
2023-04-02T20:12:12.053Z,102527.73
2023-04-02T20:15:47.873Z,102527.89
2023-04-02T20:19:24.629Z,102531.52
2023-04-02T20:23:01.697Z,102535.32
2023-04-02T20:26:41.307Z,102542.23
2023-04-02T20:30:17.243Z,102542.34
2023-04-02T20:34:00.406Z,102545.20
2023-04-02T20:37:33.256Z,102543.14
2023-04-02T20:41:10.544Z,102547.61
2023-04-02T20:44:47.403Z,102552.70
2023-04-02T20:48:27.990Z,102553.56
2023-04-02T20:52:02.744Z,102556.04
2023-04-02T20:55:40.432Z,102563.58
2023-04-02T20:59:18.699Z,102561.17
2023-04-02T21:02:55.973Z,102563.89
2023-04-02T21:06:36.821Z,102566.85
2023-04-02T21:10:11.656Z,102572.41
2023-04-02T21:13:49.442Z,102570.73
2023-04-02T21:17:26.360Z,102576.14
2023-04-02T21:21:06.293Z,102575.44
2023-04-02T21:24:41.850Z,102587.80
2023-04-02T21:28:19.145Z,102593.27
2023-04-02T21:31:56.878Z,102594.38
2023-04-02T21:35:34.734Z,102598.11
2023-04-02T21:39:18.128Z,102601.80
2023-04-02T21:42:49.835Z,102599.66
2023-04-02T21:46:29.989Z,102600.08
2023-04-02T21:50:06.288Z,102603.25
2023-04-02T21:53:43.753Z,102598.08
2023-04-02T21:57:20.917Z,102605.82
2023-04-02T22:00:59.418Z,102605.48
2023-04-02T22:04:36.371Z,102598.20
2023-04-02T22:08:13.550Z,102601.67
2023-04-02T22:11:54.701Z,102600.88
2023-04-02T22:15:32.468Z,102601.46
2023-04-02T22:19:10.093Z,102605.87
2023-04-02T22:22:44.417Z,102611.45
2023-04-02T22:26:23.502Z,102612.99
2023-04-02T22:30:00.194Z,102610.83
2023-04-02T22:33:37.655Z,102618.66
2023-04-02T22:37:15.219Z,102624.17
2023-04-02T22:40:52.803Z,102621.75
2023-04-02T22:44:30.724Z,102625.27
2023-04-02T22:48:09.925Z,102630.52
2023-04-02T22:51:48.502Z,102628.43
2023-04-02T22:55:23.301Z,102627.02
2023-04-02T22:59:01.553Z,102631.16
2023-04-02T23:02:39.349Z,102630.98
2023-04-02T23:06:18.456Z,102629.92
2023-04-02T23:09:54.078Z,102634.80
2023-04-02T23:13:33.368Z,102625.56
2023-04-02T23:17:09.341Z,102622.52
2023-04-02T23:20:46.951Z,102621.73
2023-04-02T23:24:24.713Z,102622.96
2023-04-02T23:28:02.481Z,102625.34
2023-04-02T23:38:59.745Z,102627.27
2023-04-02T23:42:33.494Z,102633.49
2023-04-02T23:46:10.995Z,102635.13
2023-04-02T23:49:48.441Z,102632.73
2023-04-02T23:53:26.941Z,102643.14
2023-04-02T23:57:22.869Z,102643.32
